Time;durP1;ratioP1;P1;durP2;ratioP2;P2;SDS_P1;SDS_P2;PMS_P1;PMS_P2;Temp;Humidity;BMP_temperature;BMP_pressure;BME280_temperature;BME280_humidity;BME280_pressure;Samples;Min_cycle;Max_cycle;Signal;HPM_P1;HPM_P2
2022/04/26 03:37:55;;;;;;;12.53;10.77;;;8.90;92.60;;;7.94;85.54;97512.50;5024069;28;20453;-77
2022/04/26 03:40:22;;;;;;;11.47;10.30;;;9.10;92.70;;;7.81;85.97;97508.00;5041190;28;20454;-76
2022/04/26 03:42:49;;;;;;;11.97;10.37;;;9.10;92.30;;;7.88;87.25;97519.53;5024673;28;20531;-75
2022/04/26 03:45:16;;;;;;;13.70;11.10;;;9.10;94.10;;;7.51;88.79;97520.00;5037819;28;20458;-77
2022/04/26 03:47:42;;;;;;;15.97;11.97;;;8.90;94.60;;;7.21;90.66;97514.25;5031091;28;20453;-76
2022/04/26 03:50:11;;;;;;;14.90;13.40;;;8.60;96.70;;;7.32;93.42;97515.47;5026411;28;20461;-77
2022/04/26 03:52:39;;;;;;;14.40;12.70;;;8.60;99.90;;;6.97;92.84;97437.75;5027934;28;21023;-75
2022/04/26 03:55:07;;;;;;;14.03;12.60;;;8.60;99.90;;;7.39;94.09;97516.28;5025467;28;20654;-76
2022/04/26 03:57:34;;;;;;;14.83;13.10;;;8.60;99.90;;;7.21;94.15;97519.63;5023202;28;20448;-69
2022/04/26 04:00:01;;;;;;;15.43;13.73;;;8.60;99.90;;;7.11;95.97;97519.19;5022034;28;20547;-75
2022/04/26 04:02:28;;;;;;;18.33;14.80;;;8.50;99.90;;;7.01;95.94;97523.09;5027715;28;20479;-76
2022/04/26 04:04:55;;;;;;;15.30;13.57;;;8.30;99.90;;;7.00;96.43;97523.31;5018862;28;20468;-76
2022/04/26 04:07:23;;;;;;;18.67;15.67;;;8.30;99.90;;;6.92;96.94;97527.03;5026508;28;20454;-77
2022/04/26 04:09:52;;;;;;;16.20;14.50;;;8.30;99.90;;;6.94;97.84;97522.25;5028031;28;20461;-76
2022/04/26 04:12:20;;;;;;;18.33;14.90;;;8.30;99.90;;;6.88;97.30;97525.75;5024475;28;20561;-74
2022/04/26 04:14:47;;;;;;;15.97;14.27;;;8.20;99.90;;;6.82;98.18;97527.38;5020420;28;20453;-75
2022/04/26 04:17:14;;;;;;;17.83;16.00;;;8.20;99.90;;;6.77;98.86;97524.50;5028075;28;20451;-75
2022/04/26 04:19:40;;;;;;;16.50;14.80;;;8.20;99.90;;;6.87;99.14;97534.84;5028732;28;20452;-74
2022/04/26 04:22:07;;;;;;;21.97;16.60;;;8.20;99.90;;;6.86;99.25;97535.88;5037613;28;20892;-73
2022/04/26 04:24:36;;;;;;;17.83;16.10;;;8.20;99.90;;;6.82;99.10;97531.94;5020884;28;20460;-72
2022/04/26 04:27:04;;;;;;;16.93;15.10;;;8.20;99.90;;;6.76;98.22;97529.06;5022070;28;20795;-73
2022/04/26 04:29:31;;;;;;;20.53;15.03;;;8.10;99.90;;;6.76;98.89;97525.53;5017375;28;20458;-73
2022/04/26 04:31:58;;;;;;;20.70;17.70;;;8.10;99.90;;;6.79;99.91;97528.63;5030569;28;20552;-74
2022/04/26 04:34:24;;;;;;;18.80;16.40;;;8.10;99.90;;;6.74;99.81;97533.78;5040911;28;20876;-73
2022/04/26 04:36:51;;;;;;;23.37;17.97;;;8.10;99.90;;;6.72;100.00;97530.47;5033503;28;20574;-75
2022/04/26 04:39:20;;;;;;;18.13;16.17;;;8.00;99.90;;;6.72;100.00;97533.16;5020938;28;20489;-78
2022/04/26 04:41:51;;;;;;;20.43;18.17;;;8.00;99.90;;;6.64;100.00;97530.66;5012052;28;20615;-80
2022/04/26 04:44:18;;;;;;;19.30;16.43;;;8.00;99.90;;;6.66;100.00;97529.41;5016300;28;20459;-80
2022/04/26 04:46:46;;;;;;;20.23;16.00;;;8.00;99.90;;;6.65;100.00;97532.31;5026693;28;20938;-78
2022/04/26 04:49:13;;;;;;;22.67;17.30;;;8.00;99.90;;;6.66;100.00;97537.47;5024747;28;21040;-76
2022/04/26 04:51:40;;;;;;;23.77;17.53;;;8.00;99.90;;;6.44;100.00;97488.47;5017959;28;20518;-80
2022/04/26 04:54:07;;;;;;;19.97;17.70;;;8.00;99.90;;;6.73;100.00;97540.16;5021104;28;20489;-78
2022/04/26 04:56:34;;;;;;;19.77;16.77;;;8.00;99.90;;;6.64;100.00;97515.38;5017260;28;20489;-81
2022/04/26 04:59:03;;;;;;;22.80;17.30;;;8.10;99.90;;;6.69;100.00;97528.19;5017452;28;23407;-80
2022/04/26 05:01:30;;;;;;;19.70;16.90;;;8.10;99.90;;;6.74;100.00;97541.00;5019012;28;20587;-77
2022/04/26 05:03:57;;;;;;;19.17;17.07;;;8.00;99.90;;;6.35;100.00;97487.00;5019795;28;20502;-78
2022/04/26 05:06:24;;;;;;;22.17;17.20;;;8.00;99.90;;;6.62;100.00;97548.84;5029498;28;20533;-76
2022/04/26 05:08:51;;;;;;;20.77;17.10;;;8.00;99.90;;;6.64;100.00;97544.09;5025236;28;20543;-71
2022/04/26 05:11:18;;;;;;;20.73;17.53;;;8.00;99.90;;;6.71;100.00;97547.59;5017875;28;20493;-72
2022/04/26 05:13:45;;;;;;;18.33;16.10;;;8.00;99.90;;;6.68;100.00;97548.00;5018244;28;20467;-71
2022/04/26 05:16:13;;;;;;;20.83;16.87;;;8.00;99.90;;;6.87;100.00;97551.78;5022684;28;20454;-74
2022/04/26 05:18:40;;;;;;;20.97;18.30;;;8.10;99.90;;;7.01;100.00;97549.94;5024751;28;20453;-76
2022/04/26 05:21:13;;;;;;;19.23;17.13;;;8.30;99.90;;;7.10;100.00;97555.97;5016199;28;20939;-75
2022/04/26 05:26:25;;;;;;;19.70;17.03;;;8.50;99.90;;;7.39;97.96;97547.72;5021038;28;20452;-76
2022/04/26 05:28:52;;;;;;;19.07;17.07;;;8.60;99.90;;;7.33;98.18;97555.56;5024143;28;20488;-72
2022/04/26 05:31:20;;;;;;;19.60;16.33;;;8.60;99.90;;;7.17;98.87;97556.81;5020714;28;20469;-78
2022/04/26 05:33:47;;;;;;;21.40;17.57;;;8.50;99.90;;;7.27;99.98;97553.72;5020596;28;20540;-75
2022/04/26 05:36:16;;;;;;;19.20;17.20;;;8.50;99.90;;;7.23;99.30;97557.84;5029278;28;20468;-76
2022/04/26 05:38:44;;;;;;;19.17;15.97;;;8.50;99.90;;;7.13;99.08;97552.88;5016753;28;20465;-73
2022/04/26 05:41:13;;;;;;;20.57;17.97;;;8.40;99.90;;;7.20;99.69;97555.53;5019181;28;20560;-70
2022/04/26 05:43:40;;;;;;;19.37;17.37;;;8.50;99.90;;;7.09;100.00;97554.31;5024366;28;21012;-73
2022/04/26 05:46:12;;;;;;;22.10;18.60;;;8.40;99.90;;;7.09;100.00;97544.41;5023406;28;20561;-73
2022/04/26 05:48:41;;;;;;;20.50;18.10;;;8.40;99.90;;;7.25;100.00;97547.72;5022795;28;20450;-75
2022/04/26 05:51:08;;;;;;;19.67;17.20;;;8.50;99.90;;;7.21;100.00;97551.84;5021938;28;20450;-73
2022/04/26 05:53:36;;;;;;;19.40;17.30;;;8.50;99.90;;;7.03;99.94;97518.34;5030891;28;20949;-73
2022/04/26 05:56:04;;;;;;;21.87;18.30;;;8.50;99.90;;;7.30;99.98;97542.53;5023027;28;20552;-74
2022/04/26 05:58:31;;;;;;;22.20;18.77;;;8.50;99.90;;;7.30;100.00;97553.28;5027145;28;20458;-73
2022/04/26 06:00:58;;;;;;;20.67;17.83;;;8.60;99.90;;;7.28;100.00;97552.69;5019607;28;20471;-72
2022/04/26 06:03:25;;;;;;;19.23;17.23;;;8.60;99.90;;;7.33;99.63;97550.19;5024050;28;20483;-68
2022/04/26 06:05:55;;;;;;;19.50;16.60;;;8.60;99.90;;;7.48;99.34;97546.47;5012297;28;20939;-67
2022/04/26 06:08:22;;;;;;;21.47;18.67;;;8.70;99.90;;;7.49;99.46;97548.97;5021470;28;20467;-68
2022/04/26 06:10:49;;;;;;;18.87;16.87;;;8.70;99.90;;;7.51;100.00;97541.50;5020859;28;20471;-68
2022/04/26 06:13:16;;;;;;;22.43;18.10;;;8.80;99.90;;;7.60;99.31;97557.44;5023308;28;20463;-68
2022/04/26 06:15:43;;;;;;;23.87;18.20;;;8.80;99.90;;;7.57;99.81;97549.78;5018117;28;22231;-69
2022/04/26 06:18:10;;;;;;;20.20;17.53;;;8.80;99.90;;;7.66;99.24;97537.78;5019735;28;20481;-69
2022/04/26 06:20:37;;;;;;;19.70;17.30;;;8.90;99.90;;;7.70;99.19;97538.19;5021598;28;20866;-68
2022/04/26 06:23:06;;;;;;;20.40;18.10;;;8.90;99.90;;;7.68;98.46;97551.03;5019482;28;20590;-68
2022/04/26 06:25:36;;;;;;;21.83;18.17;;;8.90;99.90;;;7.83;98.46;97548.09;5017855;28;20960;-68
2022/04/26 06:28:04;;;;;;;21.63;19.33;;;9.00;99.90;;;7.82;98.57;97552.69;5021674;28;20551;-68
2022/04/26 06:30:31;;;;;;;19.93;16.87;;;9.00;99.90;;;7.76;97.74;97556.19;5020638;28;20991;-68
2022/04/26 06:32:58;;;;;;;21.60;18.10;;;9.00;99.90;;;7.68;98.43;97556.41;5027131;28;20457;-68
2022/04/26 06:35:25;;;;;;;20.20;18.10;;;8.90;99.90;;;7.67;98.57;97562.81;5021879;28;20489;-68
2022/04/26 06:37:52;;;;;;;20.30;18.20;;;8.90;99.90;;;7.66;98.15;97556.59;5030762;28;20499;-68
2022/04/26 06:40:21;;;;;;;19.60;17.37;;;8.90;99.90;;;7.50;98.79;97555.16;5041665;28;20460;-69
2022/04/26 06:42:48;;;;;;;19.73;17.63;;;8.90;99.90;;;7.63;99.11;97560.53;5037375;28;20478;-69
2022/04/26 06:45:15;;;;;;;22.50;19.00;;;8.90;99.90;;;7.69;99.20;97558.88;5023931;28;20461;-68
2022/04/26 06:47:43;;;;;;;21.13;18.97;;;8.90;99.90;;;7.63;98.79;97555.16;5030134;28;20479;-68
2022/04/26 06:50:10;;;;;;;21.93;19.60;;;8.90;99.90;;;7.54;100.00;97544.81;5022972;28;20686;-69
2022/04/26 06:52:37;;;;;;;23.87;19.43;;;8.90;99.90;;;7.69;99.94;97558.88;5025699;28;20592;-68
2022/04/26 06:55:05;;;;;;;20.70;18.43;;;8.90;99.90;;;7.61;100.00;97562.59;5026015;28;20555;-68
2022/04/26 06:57:37;;;;;;;23.87;19.47;;;8.90;99.90;;;7.61;100.00;97556.41;5044023;28;20444;-68
2022/04/26 07:00:06;;;;;;;21.03;18.83;;;8.90;99.90;;;7.70;100.00;97573.16;5029742;28;20466;-68
2022/04/26 07:02:33;;;;;;;20.57;18.37;;;8.90;99.90;;;7.72;100.00;97563.81;5014137;28;20568;-69
2022/04/26 07:05:00;;;;;;;22.10;19.80;;;8.90;99.90;;;7.76;99.88;97554.34;5020324;28;20460;-68
2022/04/26 07:07:27;;;;;;;21.60;19.27;;;9.00;99.90;;;7.85;99.97;97551.41;5020215;28;20455;-68
2022/04/26 07:09:54;;;;;;;20.40;18.17;;;9.00;99.90;;;7.83;99.20;97548.09;5021458;28;20469;-69
2022/04/26 07:12:22;;;;;;;21.53;19.13;;;9.10;99.90;;;7.88;99.75;97554.50;5025322;28;20537;-68
2022/04/26 07:14:50;;;;;;;22.47;19.87;;;9.10;99.90;;;7.85;99.38;97552.25;5036307;28;20458;-68
2022/04/26 07:17:18;;;;;;;22.27;19.97;;;9.20;99.90;;;7.90;98.81;97560.50;5023771;28;20939;-69
2022/04/26 07:19:46;;;;;;;20.10;18.20;;;9.20;99.90;;;7.97;98.76;97560.50;5037114;28;20504;-69
2022/04/26 07:22:13;;;;;;;23.00;18.57;;;9.20;99.90;;;8.04;98.27;97549.72;5020957;28;20542;-68
2022/04/26 07:24:40;;;;;;;22.57;19.30;;;9.30;99.90;;;8.04;97.78;97552.41;5015812;28;20469;-72
2022/04/26 07:27:07;;;;;;;19.97;17.97;;;9.30;99.90;;;8.08;98.75;97559.03;5022123;28;21026;-73
2022/04/26 07:29:35;;;;;;;21.90;19.67;;;9.30;99.90;;;8.13;98.19;97553.84;5018296;28;20489;-74
2022/04/26 07:32:04;;;;;;;20.47;18.27;;;9.40;99.90;;;8.40;97.56;97559.13;5014671;28;20466;-71
2022/04/26 07:34:30;;;;;;;23.20;18.63;;;9.50;99.90;;;8.49;96.88;97557.88;5017220;28;20560;-69
2022/04/26 07:37:01;;;;;;;20.53;18.33;;;9.70;99.90;;;8.41;96.69;97563.47;5026362;28;20918;-70
2022/04/26 07:39:30;;;;;;;19.57;17.57;;;9.70;99.90;;;8.49;96.22;97563.25;5035823;28;21200;-72
2022/04/26 07:41:57;;;;;;;20.40;18.17;;;9.70;99.90;;;8.29;97.56;97557.13;5038607;28;20457;-71
2022/04/26 07:44:24;;;;;;;19.40;16.50;;;9.60;99.90;;;8.45;96.43;97572.81;5022909;28;20693;-72
2022/04/26 07:46:52;;;;;;;21.50;19.37;;;9.70;99.90;;;8.36;96.46;97576.75;5018404;28;20573;-72
2022/04/26 07:49:23;;;;;;;19.20;17.20;;;9.70;99.90;;;8.33;96.86;97555.66;5023473;28;20569;-74
2022/04/26 07:51:52;;;;;;;22.73;18.30;;;9.70;99.90;;;8.45;96.34;97555.81;5021903;28;20455;-74
2022/04/26 07:54:19;;;;;;;21.37;18.80;;;9.80;99.90;;;8.43;96.58;97574.03;5026374;28;20999;-73
2022/04/26 07:56:46;;;;;;;21.53;18.60;;;9.70;99.90;;;8.51;95.78;97560.38;5024186;28;20466;-73
2022/04/26 07:59:15;;;;;;;20.67;18.50;;;9.80;99.90;;;8.61;95.11;97573.38;5023480;28;20502;-72
2022/04/26 08:01:42;;;;;;;19.80;17.70;;;9.80;99.90;;;8.59;95.72;97584.38;5018471;28;20467;-73
2022/04/26 08:04:10;;;;;;;22.23;18.87;;;9.90;99.90;;;8.73;96.24;97579.75;5019942;28;21062;-72
2022/04/26 08:06:38;;;;;;;23.47;17.40;;;9.90;99.90;;;8.65;95.34;97585.38;5023392;28;20487;-74
2022/04/26 08:09:05;;;;;;;19.73;17.67;;;10.00;99.90;;;8.76;95.77;97587.41;5020258;28;20490;-74
2022/04/26 08:11:32;;;;;;;21.50;19.40;;;9.90;99.90;;;8.92;95.06;97587.97;5029968;28;20461;-77
2022/04/26 08:13:59;;;;;;;22.50;20.10;;;10.10;99.90;;;8.74;95.31;97578.72;5024176;28;20614;-72
2022/04/26 08:16:26;;;;;;;22.10;19.77;;;10.00;99.90;;;8.59;94.93;97594.31;5023599;28;20501;-70
2022/04/26 08:18:53;;;;;;;21.30;19.13;;;10.00;99.90;;;8.56;96.52;97592.88;5020244;28;20457;-73
2022/04/26 08:21:20;;;;;;;21.30;19.10;;;9.90;99.90;;;8.61;96.55;97593.06;5024843;28;20539;-75
2022/04/26 08:29:22;;;;;;;22.53;20.10;;;9.90;99.90;;;8.71;96.49;97597.97;5037120;28;20576;-70
2022/04/26 08:31:49;;;;;;;21.80;19.53;;;9.90;99.90;;;8.84;95.98;97604.34;5020886;28;20468;-72
2022/04/26 08:34:16;;;;;;;20.47;18.43;;;10.00;99.90;;;8.93;95.05;97605.78;5021213;28;20461;-74
2022/04/26 08:36:43;;;;;;;21.73;19.43;;;10.10;99.90;;;8.93;95.09;97601.19;5019156;28;20532;-74
2022/04/26 08:39:11;;;;;;;23.53;21.23;;;10.10;99.90;;;8.97;95.46;97604.28;5017145;28;20466;-75
2022/04/26 08:41:38;;;;;;;22.47;20.17;;;10.20;99.90;;;9.02;95.90;97603.66;5019133;28;20461;-70
2022/04/26 08:44:10;;;;;;;21.93;19.83;;;10.20;99.90;;;9.27;94.49;97606.41;5021449;28;20483;-76
2022/04/26 08:52:07;;;;;;;22.10;20.00;;;10.30;99.90;;;8.95;98.04;97617.16;5026469;28;20453;-78
2022/04/26 08:54:36;;;;;;;22.50;20.30;;;10.20;99.90;;;8.93;97.13;97611.97;5025566;28;20465;-76
2022/04/26 08:57:04;;;;;;;22.77;20.47;;;10.20;99.90;;;9.09;96.44;97614.41;5022329;28;20557;-81
2022/04/26 08:59:31;;;;;;;21.17;19.07;;;10.30;99.90;;;9.12;95.74;97619.34;5028534;28;20525;-74
2022/04/26 09:02:16;;;;;;;23.07;19.87;;;10.20;99.90;;;9.14;95.63;97623.50;5044242;28;20917;-78
2022/04/26 09:04:44;;;;;;;21.60;19.23;;;10.20;99.90;;;9.05;95.44;97624.78;5024544;28;20565;-81
2022/04/26 09:07:12;;;;;;;22.90;20.70;;;10.20;99.90;;;9.09;95.74;97619.78;5033052;28;20472;-76
2022/04/26 09:09:42;;;;;;;27.17;22.23;;;10.30;99.90;;;9.20;96.17;97619.13;5031956;28;20533;-75
2022/04/26 09:12:12;;;;;;;23.30;20.90;;;10.40;99.90;;;9.05;95.77;97612.16;5035266;28;20501;-78
2022/04/26 09:14:47;;;;;;;23.67;21.13;;;10.30;99.90;;;9.03;97.46;97621.47;5033321;28;20472;-72
2022/04/26 09:17:17;;;;;;;22.10;19.47;;;10.30;99.90;;;9.25;97.66;97619.28;5037938;28;20475;-80
2022/04/26 09:19:47;;;;;;;23.83;21.03;;;10.40;99.90;;;9.59;96.03;97619.06;5031717;28;118240;-80
2022/04/26 09:22:18;;;;;;;24.93;22.40;;;10.50;99.90;;;9.55;95.72;97624.06;5040568;28;20473;-75
2022/04/26 09:25:01;;;;;;;23.07;20.67;;;10.60;99.90;;;9.32;98.69;97622.75;5042447;28;20501;-74
2022/04/26 09:27:29;;;;;;;22.70;20.30;;;10.50;99.90;;;9.66;95.40;97621.72;5041276;28;20519;-73
2022/04/26 09:29:56;;;;;;;22.40;20.10;;;10.60;99.90;;;9.71;95.11;97616.47;5024696;28;20453;-75
2022/04/26 09:32:24;;;;;;;21.20;18.90;;;10.80;99.90;;;9.31;94.00;97561.78;5024182;28;20462;-77
2022/04/26 09:34:51;;;;;;;18.13;16.33;;;10.80;99.90;;;9.66;93.23;97629.81;5019374;28;20452;-71
2022/04/26 09:37:18;;;;;;;20.40;17.87;;;10.80;99.90;;;9.89;92.76;97613.81;5038602;28;20532;-76
2022/04/26 09:42:40;;;;;;;11.47;9.90;;;11.00;99.90;;;9.39;89.92;97629.97;5142739;27;20303;-76
2022/04/26 09:45:13;;;;;;;12.20;10.97;;;10.70;94.80;;;9.18;91.97;97632.78;5091545;28;22397;-74
2022/04/26 09:47:42;;;;;;;10.30;9.30;;;10.40;97.10;;;9.03;90.60;97633.09;5092474;28;20987;-74
2022/04/26 09:50:12;;;;;;;9.70;8.77;;;10.30;96.00;;;8.74;90.43;97643.38;5087564;28;20468;-78
2022/04/26 09:52:39;;;;;;;11.13;9.80;;;10.10;95.00;;;8.72;91.45;97645.44;5091510;28;20473;-75
2022/04/26 09:55:09;;;;;;;12.87;10.53;;;10.00;97.10;;;8.85;91.52;97654.50;5086639;28;20539;-76
2022/04/26 09:57:38;;;;;;;12.53;10.57;;;10.00;99.10;;;8.86;92.11;97643.53;5098338;28;20608;-77
2022/04/26 10:00:10;;;;;;;12.20;11.00;;;10.10;99.20;;;9.01;90.68;97651.31;5090833;28;20819;-78
2022/04/26 10:02:42;;;;;;;12.60;11.30;;;10.20;97.00;;;9.16;91.06;97659.13;5089625;28;20962;-77
2022/04/26 10:05:10;;;;;;;13.50;12.10;;;10.30;98.20;;;9.28;90.67;97656.59;5085596;28;22243;-77
2022/04/26 10:07:41;;;;;;;12.73;11.33;;;10.40;97.00;;;9.43;89.70;97664.41;5093422;28;20464;-76
2022/04/26 10:10:09;;;;;;;11.60;10.50;;;10.60;95.60;;;9.56;88.14;97671.56;5093380;28;20452;-79
2022/04/26 10:12:37;;;;;;;11.80;10.60;;;10.70;94.60;;;8.89;88.25;97593.78;5092780;28;20527;-74
2022/04/26 10:15:08;;;;;;;11.47;10.37;;;10.60;94.30;;;9.46;89.05;97668.50;5086070;28;20467;-76
2022/04/26 10:17:35;;;;;;;11.87;10.77;;;10.60;95.70;;;8.96;87.49;97605.34;5089240;28;20462;-78
2022/04/26 10:20:03;;;;;;;12.23;11.03;;;10.60;92.70;;;9.37;87.07;97665.25;5088011;28;20453;-79
2022/04/26 10:22:57;;;;;;;11.17;10.07;;;10.60;92.70;;;9.77;85.91;97669.53;5093882;28;20479;-77
2022/04/26 10:25:26;;;;;;;12.03;10.83;;;10.80;92.60;;;10.16;85.01;97661.34;5085742;28;20551;-75
2022/04/26 10:28:26;;;;;;;11.83;10.60;;;11.20;92.30;;;10.62;83.38;97675.47;5098645;28;20476;-71
2022/04/26 10:30:56;;;;;;;13.53;12.13;;;11.50;91.20;;;10.69;84.10;97681.66;5089749;28;20463;-69
2022/04/26 10:33:37;;;;;;;10.83;9.83;;;11.80;90.90;;;10.56;83.91;97676.38;5091542;28;20533;-75
2022/04/26 10:36:36;;;;;;;10.07;9.17;;;11.80;90.50;;;10.12;84.68;97695.22;5107990;27;20584;-77
2022/04/26 10:39:31;;;;;;;10.20;9.20;;;11.50;90.70;;;9.82;85.68;97688.63;5093888;28;20900;-76
2022/04/26 10:42:00;;;;;;;10.00;9.00;;;11.20;91.10;;;9.83;87.14;97689.44;5092942;28;21005;-73
2022/04/26 10:44:39;;;;;;;10.27;9.17;;;11.10;93.40;;;9.72;86.91;97697.19;5094781;28;20456;-78
2022/04/26 10:47:29;;;;;;;11.30;9.60;;;11.00;92.60;;;9.63;88.62;97711.97;5097368;28;20499;-74
2022/04/26 10:50:02;;;;;;;9.93;8.97;;;10.90;94.40;;;9.63;88.89;97698.50;5092619;28;20529;-76
2022/04/26 10:52:49;;;;;;;9.97;9.07;;;10.90;95.50;;;9.57;88.41;97708.28;5086282;28;20601;-78
2022/04/26 10:55:20;;;;;;;9.97;9.00;;;10.90;94.50;;;9.69;87.44;97699.50;5112010;27;20517;-79
2022/04/26 10:57:55;;;;;;;11.73;8.50;;;10.90;93.70;;;10.03;85.67;97710.88;5078374;28;20563;-79
2022/04/26 11:00:34;;;;;;;10.93;9.93;;;11.20;92.00;;;10.28;88.09;97716.28;5074958;28;20797;-83
2022/04/26 11:03:07;;;;;;;9.07;8.23;;;11.40;94.10;;;10.75;84.27;97718.56;5077221;28;20980;-77
2022/04/26 11:05:34;;;;;;;8.10;7.33;;;11.70;91.90;;;10.05;81.13;97719.56;5108541;27;20483;-81
2022/04/26 11:08:04;;;;;;;7.83;7.10;;;11.50;86.80;;;9.71;84.03;97719.00;5079815;28;20812;-75
2022/04/26 11:11:00;;;;;;;7.23;6.43;;;11.10;89.70;;;9.78;84.57;97711.66;5077961;28;20467;-80
2022/04/26 11:13:37;;;;;;;6.90;6.30;;;11.10;90.70;;;9.63;82.86;97730.88;5073325;28;20462;-82
2022/04/26 11:16:13;;;;;;;6.20;5.60;;;11.00;88.30;;;9.84;82.81;97739.66;5069737;28;20452;-75
2022/04/26 11:18:45;;;;;;;6.40;5.80;;;11.00;90.10;;;10.03;83.40;97737.88;5072757;28;20458;-75
2022/04/26 11:21:14;;;;;;;5.33;4.93;;;11.10;90.30;;;10.20;80.38;97727.38;5109676;27;20504;-80
2022/04/26 11:29:26;;;;;;;5.67;5.07;;;11.90;84.30;;;11.04;75.96;97726.16;5072073;28;20458;-81
2022/04/26 11:31:54;;;;;;;4.93;4.43;;;12.10;83.40;;;10.81;77.18;97724.13;5077750;28;20457;-81
2022/04/26 11:34:43;;;;;;;5.30;4.80;;;12.00;83.20;;;10.94;75.50;97736.69;5086208;28;21061;-82
2022/04/26 11:37:14;;;;;;;5.80;5.30;;;12.10;82.10;;;10.96;76.83;97738.09;5109384;27;20536;-79
2022/04/26 11:39:42;;;;;;;5.20;4.80;;;12.20;82.80;;;10.73;75.53;97734.19;5074496;28;21038;-83
2022/04/26 11:42:10;;;;;;;5.27;4.80;;;11.90;81.80;;;10.37;75.59;97732.22;5083948;28;20493;-82
2022/04/26 11:44:37;;;;;;;6.10;5.60;;;11.70;81.60;;;10.51;76.83;97732.94;5076009;28;20464;-81
2022/04/26 11:47:05;;;;;;;5.90;5.40;;;11.70;82.80;;;10.80;76.76;97741.41;5082636;28;20512;-76
2022/04/26 11:49:42;;;;;;;5.90;5.40;;;11.90;83.10;;;10.68;76.41;97744.00;5079768;28;20459;-82
2022/04/26 11:52:09;;;;;;;8.27;7.50;;;11.80;82.90;;;10.91;77.68;97746.06;5099716;28;20553;-77
2022/04/26 11:54:37;;;;;;;7.43;6.83;;;12.00;83.90;;;10.79;79.39;97743.28;5114338;27;20506;-78
2022/04/26 11:57:05;;;;;;;7.20;6.60;;;12.00;85.10;;;10.83;79.95;97747.19;5089814;28;20958;-80
2022/04/26 11:59:34;;;;;;;7.00;6.40;;;12.00;85.80;;;10.84;77.85;97740.72;5083613;28;20461;-74
2022/04/26 12:02:01;;;;;;;7.40;6.80;;;12.00;84.00;;;10.74;78.67;97745.81;5093428;28;20546;-72
2022/04/26 12:04:29;;;;;;;7.53;6.83;;;11.90;84.50;;;10.49;81.08;97747.50;5079022;28;20547;-77
2022/04/26 12:06:59;;;;;;;6.70;6.10;;;11.70;86.80;;;10.79;79.35;97742.44;5087304;28;20549;-81
2022/04/26 12:09:26;;;;;;;6.70;6.10;;;11.80;85.60;;;10.65;77.80;97733.66;5079178;28;20639;-82
2022/04/26 12:12:02;;;;;;;7.13;6.53;;;11.90;83.80;;;10.61;78.73;97736.81;5079552;28;20459;-77
2022/04/26 12:14:29;;;;;;;6.80;6.10;;;11.80;84.60;;;10.60;76.36;97753.22;5078184;28;20458;-77
2022/04/26 12:16:56;;;;;;;6.33;5.73;;;11.80;82.70;;;10.64;75.55;97749.03;5085297;28;20517;-80
2022/04/26 12:19:35;;;;;;;6.23;5.63;;;11.80;82.50;;;10.72;74.51;97729.84;5082398;28;20585;-83
2022/04/26 12:22:05;;;;;;;6.37;5.27;;;11.90;82.00;;;11.12;73.57;97747.50;5080610;28;20474;-75
2022/04/26 12:24:34;;;;;;;6.23;5.63;;;12.10;81.30;;;11.47;72.03;97740.63;5074353;28;20541;-77
2022/04/26 12:27:03;;;;;;;4.67;4.27;;;12.40;80.60;;;11.93;67.96;97751.06;5083586;28;20447;-78
2022/04/26 12:29:32;;;;;;;4.80;4.40;;;12.80;78.00;;;12.25;66.79;97756.22;5095022;28;20560;-76
2022/04/26 12:32:00;;;;;;;5.20;4.80;;;13.10;77.20;;;12.41;67.81;97755.53;5117453;27;20523;-77
2022/04/26 12:34:30;;;;;;;5.77;5.27;;;13.40;77.70;;;12.39;69.13;97752.25;5093318;28;20489;-76
2022/04/26 12:37:06;;;;;;;5.03;4.63;;;13.60;78.40;;;12.33;68.62;97756.72;5086834;28;20461;-74
2022/04/26 12:39:45;;;;;;;5.30;4.90;;;13.60;77.40;;;12.43;68.51;97750.72;5089333;28;20540;-79
2022/04/26 12:42:14;;;;;;;4.40;4.00;;;13.50;77.40;;;12.40;68.44;97759.31;5082748;28;20570;-77
2022/04/26 12:44:52;;;;;;;4.53;4.13;;;13.60;77.30;;;12.71;68.33;97762.75;5079280;28;20458;-78
2022/04/26 12:52:57;;;;;;;4.80;4.40;;;14.10;77.00;;;12.38;65.44;97756.00;5079315;28;20542;-76
2022/04/26 12:55:30;;;;;;;5.63;4.00;;;13.80;74.30;;;11.93;68.47;97765.41;5079023;28;21381;-75
2022/04/26 12:57:59;;;;;;;4.37;4.07;;;13.40;75.80;;;11.39;67.79;97728.25;5086329;28;20545;-74
2022/04/26 13:00:27;;;;;;;4.10;3.70;;;13.00;75.20;;;11.80;68.30;97763.72;5078637;28;20981;-73
2022/04/26 13:02:56;;;;;;;5.00;4.60;;;12.90;76.30;;;11.85;68.42;97763.84;5081433;28;20482;-74
2022/04/26 13:05:23;;;;;;;4.73;4.33;;;13.00;76.50;;;11.33;68.82;97765.16;5072664;28;20521;-75
2022/04/26 13:07:51;;;;;;;5.10;4.57;;;12.60;75.90;;;11.24;70.30;97774.59;5084000;28;20538;-76
2022/04/26 13:10:22;;;;;;;5.33;4.90;;;12.50;76.70;;;11.08;70.76;97780.63;5074633;28;20496;-76
2022/04/26 13:12:49;;;;;;;5.90;5.40;;;12.40;77.40;;;10.99;71.93;97785.50;5092164;28;20456;-75
2022/04/26 13:15:16;;;;;;;6.30;5.70;;;12.30;78.00;;;10.61;71.22;97793.53;5072584;28;20908;-72
2022/04/26 13:17:44;;;;;;;5.63;4.97;;;12.00;77.40;;;10.33;72.36;97796.63;5074180;28;20630;-74
2022/04/26 13:20:13;;;;;;;6.70;6.10;;;11.60;77.60;;;10.19;74.50;97791.31;5111609;27;20497;-75
2022/04/26 13:22:41;;;;;;;5.80;5.30;;;11.40;79.00;;;10.18;73.95;97780.75;5098676;28;20497;-74
2022/04/26 13:25:09;;;;;;;5.07;4.67;;;11.40;78.70;;;10.20;73.62;97790.28;5100514;28;20443;-78
2022/04/26 13:27:38;;;;;;;6.23;5.73;;;11.40;78.50;;;10.18;73.18;97778.88;5099200;28;20463;-82
2022/04/26 13:30:08;;;;;;;5.40;5.00;;;11.40;78.20;;;10.06;73.56;97781.44;5092104;28;20451;-82
2022/04/26 13:32:35;;;;;;;6.97;6.27;;;11.30;78.70;;;10.33;74.07;97786.66;5086155;28;20462;-82
2022/04/26 13:35:05;;;;;;;6.83;6.20;;;11.40;79.10;;;10.46;73.56;97720.09;5076309;28;20533;-82
2022/04/26 13:37:33;;;;;;;9.40;6.30;;;11.70;79.70;;;10.87;70.09;97736.75;5077242;28;20461;-81
2022/04/26 13:40:01;;;;;;;7.07;6.37;;;12.10;77.90;;;11.61;67.87;97768.34;5082469;28;20455;-81
2022/04/26 13:42:30;;;;;;;6.13;5.53;;;12.50;77.10;;;12.40;66.03;97753.06;5076923;28;21075;-81
2022/04/26 13:45:00;;;;;;;6.70;6.10;;;13.20;76.80;;;12.86;65.77;97758.72;5075802;28;20600;-79
2022/04/26 13:47:27;;;;;;;6.10;5.60;;;13.80;76.20;;;12.74;64.71;97769.59;5076237;28;20504;-82
2022/04/26 13:49:55;;;;;;;6.20;5.70;;;13.90;74.90;;;12.34;65.82;97773.78;5082108;28;20460;-80
2022/04/26 13:52:24;;;;;;;5.70;5.20;;;13.70;74.60;;;12.47;66.59;97776.25;5084908;28;21037;-79
2022/04/26 13:54:52;;;;;;;6.03;5.53;;;13.60;75.40;;;12.41;66.25;97776.38;5082625;28;20451;-79
2022/04/26 13:57:19;;;;;;;7.40;6.70;;;13.50;75.20;;;12.46;65.75;97790.88;5095141;28;20450;-78
2022/04/26 13:59:46;;;;;;;7.43;6.73;;;13.50;74.70;;;12.21;66.53;97788.34;5090838;28;20471;-82
2022/04/26 14:02:15;;;;;;;6.63;6.03;;;13.50;75.00;;;12.21;67.69;97782.94;5087274;28;20471;-79
2022/04/26 14:04:44;;;;;;;5.87;5.37;;;13.40;76.10;;;12.63;64.39;97784.75;5080866;28;20932;-81
2022/04/26 14:07:11;;;;;;;6.47;5.97;;;13.60;73.80;;;12.39;64.94;97779.34;5076368;28;20928;-82
2022/04/26 14:09:40;;;;;;;6.00;5.50;;;13.50;74.20;;;12.65;63.97;97788.06;5080036;28;20468;-77
2022/04/26 14:12:08;;;;;;;5.63;5.17;;;13.60;73.50;;;12.99;62.46;97774.75;5078121;28;20538;-78
2022/04/26 14:23:08;;;;;;;5.40;5.00;;;14.90;71.30;;;14.06;60.11;97789.13;5052122;28;20464;-82
2022/04/26 14:25:37;;;;;;;4.97;4.57;;;15.10;70.90;;;14.21;58.07;97785.88;5068953;28;20484;-79
2022/04/26 14:28:05;;;;;;;5.00;4.60;;;15.30;69.00;;;13.61;58.83;97794.25;5092721;28;20455;-79
2022/04/26 14:30:32;;;;;;;6.00;5.50;;;14.90;68.30;;;13.37;61.42;97793.44;5078586;28;20977;-81
2022/04/26 14:33:03;;;;;;;5.53;5.03;;;14.50;70.30;;;13.07;61.25;97794.44;5090754;28;20527;-75
2022/04/26 14:35:32;;;;;;;5.00;4.60;;;14.30;69.70;;;12.81;61.86;97796.56;5083331;28;20553;-82
2022/04/26 14:37:59;;;;;;;5.60;5.10;;;14.10;69.90;;;12.88;62.10;97797.28;5086844;28;20491;-81
2022/04/26 14:40:26;;;;;;;6.10;5.60;;;14.10;70.30;;;12.55;61.87;97810.31;5074866;28;20449;-82